sensor_id;sensor_type;location;lat;lon;timestamp;P1;durP1;ratioP1;P2;durP2;ratioP2
32501;SDS011;18952;52.516;13.460;2023-04-16T00:00:58;45.95;;;38.72;;
32501;SDS011;18952;52.516;13.460;2023-04-16T00:03:25;49.75;;;41.55;;
32501;SDS011;18952;52.516;13.460;2023-04-16T00:05:52;51.30;;;45.28;;
32501;SDS011;18952;52.516;13.460;2023-04-16T00:08:19;54.40;;;45.50;;
32501;SDS011;18952;52.516;13.460;2023-04-16T00:10:46;48.33;;;41.88;;
32501;SDS011;18952;52.516;13.460;2023-04-16T00:13:12;50.42;;;42.25;;
32501;SDS011;18952;52.516;13.460;2023-04-16T00:15:40;49.08;;;42.45;;
32501;SDS011;18952;52.516;13.460;2023-04-16T00:18:07;48.88;;;42.28;;
32501;SDS011;18952;52.516;13.460;2023-04-16T00:20:35;50.40;;;44.88;;
32501;SDS011;18952;52.516;13.460;2023-04-16T00:23:03;49.65;;;43.13;;
32501;SDS011;18952;52.516;13.460;2023-04-16T00:25:31;47.08;;;41.95;;
32501;SDS011;18952;52.516;13.460;2023-04-16T00:27:58;44.67;;;40.10;;
32501;SDS011;18952;52.516;13.460;2023-04-16T00:30:28;52.55;;;44.17;;
32501;SDS011;18952;52.516;13.460;2023-04-16T00:32:59;48.28;;;43.08;;
32501;SDS011;18952;52.516;13.460;2023-04-16T00:35:30;48.25;;;42.95;;
32501;SDS011;18952;52.516;13.460;2023-04-16T00:37:57;48.90;;;43.70;;
32501;SDS011;18952;52.516;13.460;2023-04-16T00:40:29;47.38;;;42.05;;
32501;SDS011;18952;52.516;13.460;2023-04-16T00:42:55;48.58;;;43.22;;
32501;SDS011;18952;52.516;13.460;2023-04-16T00:45:24;52.28;;;46.42;;
32501;SDS011;18952;52.516;13.460;2023-04-16T00:47:51;50.90;;;45.40;;
32501;SDS011;18952;52.516;13.460;2023-04-16T00:50:18;49.50;;;44.08;;
32501;SDS011;18952;52.516;13.460;2023-04-16T00:52:46;50.53;;;45.08;;
32501;SDS011;18952;52.516;13.460;2023-04-16T00:55:14;51.83;;;46.25;;
32501;SDS011;18952;52.516;13.460;2023-04-16T00:57:41;59.80;;;50.47;;
32501;SDS011;18952;52.516;13.460;2023-04-16T01:00:08;58.42;;;50.38;;
32501;SDS011;18952;52.516;13.460;2023-04-16T01:02:35;52.30;;;46.63;;
32501;SDS011;18952;52.516;13.460;2023-04-16T01:05:03;56.55;;;48.25;;
32501;SDS011;18952;52.516;13.460;2023-04-16T01:07:30;54.10;;;48.03;;
32501;SDS011;18952;52.516;13.460;2023-04-16T01:09:58;59.97;;;50.35;;
32501;SDS011;18952;52.516;13.460;2023-04-16T01:12:25;53.55;;;47.72;;
32501;SDS011;18952;52.516;13.460;2023-04-16T01:14:52;55.00;;;47.55;;
32501;SDS011;18952;52.516;13.460;2023-04-16T01:17:21;57.13;;;50.15;;
32501;SDS011;18952;52.516;13.460;2023-04-16T01:19:52;55.25;;;48.80;;
32501;SDS011;18952;52.516;13.460;2023-04-16T01:22:19;55.45;;;48.58;;
32501;SDS011;18952;52.516;13.460;2023-04-16T01:24:51;58.83;;;49.50;;
32501;SDS011;18952;52.516;13.460;2023-04-16T01:27:20;56.30;;;49.92;;
32501;SDS011;18952;52.516;13.460;2023-04-16T01:29:49;59.80;;;53.30;;
32501;SDS011;18952;52.516;13.460;2023-04-16T01:32:16;64.65;;;54.05;;
32501;SDS011;18952;52.516;13.460;2023-04-16T01:34:43;64.85;;;54.15;;
32501;SDS011;18952;52.516;13.460;2023-04-16T01:37:09;64.40;;;54.33;;
32501;SDS011;18952;52.516;13.460;2023-04-16T01:39:37;59.28;;;49.72;;
32501;SDS011;18952;52.516;13.460;2023-04-16T01:42:04;62.58;;;53.63;;
32501;SDS011;18952;52.516;13.460;2023-04-16T01:44:30;62.33;;;52.92;;
32501;SDS011;18952;52.516;13.460;2023-04-16T01:46:57;61.55;;;52.05;;
32501;SDS011;18952;52.516;13.460;2023-04-16T01:49:24;58.95;;;51.30;;
32501;SDS011;18952;52.516;13.460;2023-04-16T01:51:50;60.25;;;51.17;;
32501;SDS011;18952;52.516;13.460;2023-04-16T01:54:17;60.25;;;50.55;;
32501;SDS011;18952;52.516;13.460;2023-04-16T01:56:45;59.60;;;51.90;;
32501;SDS011;18952;52.516;13.460;2023-04-16T01:59:12;57.13;;;50.35;;
32501;SDS011;18952;52.516;13.460;2023-04-16T02:01:40;53.97;;;47.75;;
32501;SDS011;18952;52.516;13.460;2023-04-16T02:04:08;53.10;;;47.30;;
32501;SDS011;18952;52.516;13.460;2023-04-16T02:06:37;61.03;;;50.42;;
32501;SDS011;18952;52.516;13.460;2023-04-16T02:09:05;55.90;;;49.75;;
32501;SDS011;18952;52.516;13.460;2023-04-16T02:11:32;53.40;;;47.63;;
32501;SDS011;18952;52.516;13.460;2023-04-16T02:14:02;54.22;;;47.22;;
32501;SDS011;18952;52.516;13.460;2023-04-16T02:16:31;57.13;;;49.33;;
32501;SDS011;18952;52.516;13.460;2023-04-16T02:19:02;54.80;;;48.35;;
32501;SDS011;18952;52.516;13.460;2023-04-16T02:21:32;56.97;;;48.30;;
32501;SDS011;18952;52.516;13.460;2023-04-16T02:23:59;51.55;;;45.83;;
32501;SDS011;18952;52.516;13.460;2023-04-16T02:26:28;53.63;;;46.05;;
32501;SDS011;18952;52.516;13.460;2023-04-16T02:28:55;52.30;;;45.78;;
32501;SDS011;18952;52.516;13.460;2023-04-16T02:31:21;52.97;;;45.70;;
32501;SDS011;18952;52.516;13.460;2023-04-16T02:33:48;52.15;;;45.45;;
32501;SDS011;18952;52.516;13.460;2023-04-16T02:36:15;52.97;;;46.10;;
32501;SDS011;18952;52.516;13.460;2023-04-16T02:38:42;57.13;;;49.20;;
32501;SDS011;18952;52.516;13.460;2023-04-16T02:41:08;57.10;;;48.75;;
32501;SDS011;18952;52.516;13.460;2023-04-16T02:43:35;53.92;;;46.88;;
32501;SDS011;18952;52.516;13.460;2023-04-16T02:46:02;59.78;;;50.33;;
32501;SDS011;18952;52.516;13.460;2023-04-16T02:48:29;62.72;;;50.42;;
32501;SDS011;18952;52.516;13.460;2023-04-16T02:50:55;58.85;;;50.15;;
32501;SDS011;18952;52.516;13.460;2023-04-16T02:53:22;55.95;;;49.72;;
32501;SDS011;18952;52.516;13.460;2023-04-16T02:55:55;61.92;;;51.17;;
32501;SDS011;18952;52.516;13.460;2023-04-16T02:58:22;62.40;;;53.28;;
32501;SDS011;18952;52.516;13.460;2023-04-16T03:00:50;64.13;;;53.33;;
32501;SDS011;18952;52.516;13.460;2023-04-16T03:03:17;65.35;;;54.83;;
32501;SDS011;18952;52.516;13.460;2023-04-16T03:05:45;66.90;;;55.05;;
32501;SDS011;18952;52.516;13.460;2023-04-16T03:08:13;71.47;;;58.15;;
32501;SDS011;18952;52.516;13.460;2023-04-16T03:10:40;70.18;;;58.50;;
32501;SDS011;18952;52.516;13.460;2023-04-16T03:13:08;71.22;;;59.08;;
32501;SDS011;18952;52.516;13.460;2023-04-16T03:15:35;79.13;;;62.60;;
32501;SDS011;18952;52.516;13.460;2023-04-16T03:18:03;78.45;;;63.88;;
32501;SDS011;18952;52.516;13.460;2023-04-16T03:20:30;84.00;;;64.05;;
32501;SDS011;18952;52.516;13.460;2023-04-16T03:22:59;74.60;;;61.35;;
32501;SDS011;18952;52.516;13.460;2023-04-16T03:25:26;80.65;;;63.33;;
32501;SDS011;18952;52.516;13.460;2023-04-16T03:27:54;76.63;;;62.35;;
32501;SDS011;18952;52.516;13.460;2023-04-16T03:30:23;83.90;;;63.55;;
32501;SDS011;18952;52.516;13.460;2023-04-16T03:32:50;78.95;;;62.53;;
32501;SDS011;18952;52.516;13.460;2023-04-16T03:35:17;87.63;;;63.50;;
32501;SDS011;18952;52.516;13.460;2023-04-16T03:37:44;80.43;;;63.17;;
32501;SDS011;18952;52.516;13.460;2023-04-16T03:40:10;77.07;;;60.70;;
32501;SDS011;18952;52.516;13.460;2023-04-16T03:42:37;81.18;;;62.63;;
32501;SDS011;18952;52.516;13.460;2023-04-16T03:45:04;81.13;;;60.75;;
32501;SDS011;18952;52.516;13.460;2023-04-16T03:47:31;82.97;;;61.80;;
32501;SDS011;18952;52.516;13.460;2023-04-16T03:49:58;77.85;;;61.30;;
32501;SDS011;18952;52.516;13.460;2023-04-16T03:52:25;84.25;;;63.88;;
32501;SDS011;18952;52.516;13.460;2023-04-16T03:54:51;79.05;;;61.65;;
32501;SDS011;18952;52.516;13.460;2023-04-16T03:57:18;85.97;;;62.50;;
32501;SDS011;18952;52.516;13.460;2023-04-16T03:59:46;87.03;;;61.83;;
32501;SDS011;18952;52.516;13.460;2023-04-16T04:02:14;82.90;;;60.85;;
32501;SDS011;18952;52.516;13.460;2023-04-16T04:04:42;83.35;;;63.30;;
32501;SDS011;18952;52.516;13.460;2023-04-16T04:07:09;84.82;;;62.55;;
32501;SDS011;18952;52.516;13.460;2023-04-16T04:09:39;83.93;;;61.05;;
32501;SDS011;18952;52.516;13.460;2023-04-16T04:12:09;81.20;;;59.78;;
32501;SDS011;18952;52.516;13.460;2023-04-16T04:14:39;82.30;;;59.80;;
32501;SDS011;18952;52.516;13.460;2023-04-16T04:17:09;83.00;;;59.45;;
32501;SDS011;18952;52.516;13.460;2023-04-16T04:19:38;77.63;;;59.03;;
32501;SDS011;18952;52.516;13.460;2023-04-16T04:22:21;77.65;;;58.70;;
32501;SDS011;18952;52.516;13.460;2023-04-16T04:24:48;79.00;;;59.00;;
32501;SDS011;18952;52.516;13.460;2023-04-16T04:27:15;74.93;;;57.30;;
32501;SDS011;18952;52.516;13.460;2023-04-16T04:29:41;79.00;;;58.75;;
32501;SDS011;18952;52.516;13.460;2023-04-16T04:32:08;76.97;;;57.90;;
32501;SDS011;18952;52.516;13.460;2023-04-16T04:34:34;79.45;;;59.47;;
32501;SDS011;18952;52.516;13.460;2023-04-16T04:37:01;87.68;;;61.97;;
32501;SDS011;18952;52.516;13.460;2023-04-16T04:39:28;82.30;;;60.33;;
32501;SDS011;18952;52.516;13.460;2023-04-16T04:41:55;78.82;;;57.78;;
32501;SDS011;18952;52.516;13.460;2023-04-16T04:44:22;84.55;;;60.90;;
32501;SDS011;18952;52.516;13.460;2023-04-16T04:46:49;85.05;;;61.30;;
32501;SDS011;18952;52.516;13.460;2023-04-16T04:49:16;85.32;;;59.72;;
32501;SDS011;18952;52.516;13.460;2023-04-16T04:51:42;82.93;;;59.08;;
32501;SDS011;18952;52.516;13.460;2023-04-16T04:54:10;85.15;;;60.42;;
32501;SDS011;18952;52.516;13.460;2023-04-16T04:56:38;84.95;;;59.55;;
32501;SDS011;18952;52.516;13.460;2023-04-16T04:59:05;88.25;;;61.45;;
32501;SDS011;18952;52.516;13.460;2023-04-16T05:01:34;87.63;;;61.28;;
32501;SDS011;18952;52.516;13.460;2023-04-16T05:04:04;88.85;;;59.90;;
32501;SDS011;18952;52.516;13.460;2023-04-16T05:06:33;90.72;;;62.63;;
32501;SDS011;18952;52.516;13.460;2023-04-16T05:09:03;87.30;;;62.35;;
32501;SDS011;18952;52.516;13.460;2023-04-16T05:11:41;92.22;;;62.17;;
32501;SDS011;18952;52.516;13.460;2023-04-16T05:14:10;91.38;;;61.63;;
32501;SDS011;18952;52.516;13.460;2023-04-16T05:16:39;91.35;;;61.50;;
32501;SDS011;18952;52.516;13.460;2023-04-16T05:19:10;95.43;;;62.38;;
32501;SDS011;18952;52.516;13.460;2023-04-16T05:21:37;92.45;;;61.53;;
32501;SDS011;18952;52.516;13.460;2023-04-16T05:24:04;95.97;;;63.42;;
32501;SDS011;18952;52.516;13.460;2023-04-16T05:26:31;91.78;;;60.17;;
32501;SDS011;18952;52.516;13.460;2023-04-16T05:28:58;95.13;;;61.17;;
32501;SDS011;18952;52.516;13.460;2023-04-16T05:31:24;88.18;;;60.00;;
32501;SDS011;18952;52.516;13.460;2023-04-16T05:33:51;97.57;;;61.33;;
32501;SDS011;18952;52.516;13.460;2023-04-16T05:36:18;91.35;;;59.25;;
32501;SDS011;18952;52.516;13.460;2023-04-16T05:38:45;100.15;;;61.78;;
32501;SDS011;18952;52.516;13.460;2023-04-16T05:41:11;98.68;;;60.80;;
32501;SDS011;18952;52.516;13.460;2023-04-16T05:43:38;95.10;;;60.88;;
32501;SDS011;18952;52.516;13.460;2023-04-16T05:46:05;97.85;;;60.85;;
32501;SDS011;18952;52.516;13.460;2023-04-16T05:48:31;93.68;;;59.83;;
32501;SDS011;18952;52.516;13.460;2023-04-16T05:50:58;91.65;;;59.50;;
32501;SDS011;18952;52.516;13.460;2023-04-16T05:53:26;92.93;;;57.95;;
32501;SDS011;18952;52.516;13.460;2023-04-16T05:55:53;88.70;;;57.22;;
32501;SDS011;18952;52.516;13.460;2023-04-16T05:58:20;84.13;;;55.70;;
32501;SDS011;18952;52.516;13.460;2023-04-16T06:00:47;94.80;;;58.70;;
32501;SDS011;18952;52.516;13.460;2023-04-16T06:03:17;85.45;;;55.85;;
32501;SDS011;18952;52.516;13.460;2023-04-16T06:05:48;84.25;;;55.85;;
32501;SDS011;18952;52.516;13.460;2023-04-16T06:08:16;78.75;;;52.33;;
32501;SDS011;18952;52.516;13.460;2023-04-16T06:10:44;88.07;;;56.45;;
32501;SDS011;18952;52.516;13.460;2023-04-16T06:13:12;89.05;;;57.63;;
32501;SDS011;18952;52.516;13.460;2023-04-16T06:15:39;89.43;;;58.22;;
32501;SDS011;18952;52.516;13.460;2023-04-16T06:18:05;72.68;;;52.05;;
32501;SDS011;18952;52.516;13.460;2023-04-16T06:20:32;71.97;;;52.03;;
32501;SDS011;18952;52.516;13.460;2023-04-16T06:22:59;74.10;;;52.03;;
32501;SDS011;18952;52.516;13.460;2023-04-16T06:25:25;76.82;;;52.20;;
32501;SDS011;18952;52.516;13.460;2023-04-16T06:27:52;82.63;;;54.45;;
32501;SDS011;18952;52.516;13.460;2023-04-16T06:30:19;85.53;;;55.67;;
32501;SDS011;18952;52.516;13.460;2023-04-16T06:32:46;72.43;;;50.45;;
32501;SDS011;18952;52.516;13.460;2023-04-16T06:35:14;71.43;;;50.70;;
32501;SDS011;18952;52.516;13.460;2023-04-16T06:37:40;72.22;;;51.88;;
32501;SDS011;18952;52.516;13.460;2023-04-16T06:40:07;70.70;;;51.42;;
32501;SDS011;18952;52.516;13.460;2023-04-16T06:42:36;70.68;;;50.92;;
32501;SDS011;18952;52.516;13.460;2023-04-16T06:45:04;67.88;;;48.63;;
32501;SDS011;18952;52.516;13.460;2023-04-16T06:47:32;65.75;;;48.40;;
32501;SDS011;18952;52.516;13.460;2023-04-16T06:50:02;63.38;;;46.72;;
32501;SDS011;18952;52.516;13.460;2023-04-16T06:52:36;62.30;;;45.67;;
32501;SDS011;18952;52.516;13.460;2023-04-16T06:55:03;65.75;;;47.35;;
32501;SDS011;18952;52.516;13.460;2023-04-16T06:57:32;69.70;;;48.33;;
32501;SDS011;18952;52.516;13.460;2023-04-16T07:00:02;65.22;;;46.17;;
32501;SDS011;18952;52.516;13.460;2023-04-16T07:02:29;70.07;;;49.88;;
32501;SDS011;18952;52.516;13.460;2023-04-16T07:04:56;63.35;;;47.70;;
32501;SDS011;18952;52.516;13.460;2023-04-16T07:07:23;59.40;;;46.70;;
32501;SDS011;18952;52.516;13.460;2023-04-16T07:09:50;74.18;;;51.45;;
32501;SDS011;18952;52.516;13.460;2023-04-16T07:12:19;61.42;;;46.75;;
32501;SDS011;18952;52.516;13.460;2023-04-16T07:14:48;66.72;;;47.83;;
32501;SDS011;18952;52.516;13.460;2023-04-16T07:17:16;67.60;;;48.72;;
32501;SDS011;18952;52.516;13.460;2023-04-16T07:19:45;65.60;;;45.70;;
32501;SDS011;18952;52.516;13.460;2023-04-16T07:22:12;71.28;;;48.05;;
32501;SDS011;18952;52.516;13.460;2023-04-16T07:24:39;63.50;;;47.00;;
32501;SDS011;18952;52.516;13.460;2023-04-16T07:27:05;65.18;;;45.95;;
32501;SDS011;18952;52.516;13.460;2023-04-16T07:29:32;63.28;;;44.88;;
32501;SDS011;18952;52.516;13.460;2023-04-16T07:31:59;65.25;;;46.75;;
32501;SDS011;18952;52.516;13.460;2023-04-16T07:34:26;66.05;;;46.58;;
32501;SDS011;18952;52.516;13.460;2023-04-16T07:36:55;70.82;;;48.60;;
32501;SDS011;18952;52.516;13.460;2023-04-16T07:39:21;62.80;;;46.08;;
32501;SDS011;18952;52.516;13.460;2023-04-16T07:41:49;61.72;;;43.90;;
32501;SDS011;18952;52.516;13.460;2023-04-16T07:44:16;57.38;;;43.55;;
32501;SDS011;18952;52.516;13.460;2023-04-16T07:46:44;62.22;;;43.95;;
32501;SDS011;18952;52.516;13.460;2023-04-16T07:49:13;58.67;;;43.28;;
32501;SDS011;18952;52.516;13.460;2023-04-16T07:51:42;61.45;;;44.63;;
32501;SDS011;18952;52.516;13.460;2023-04-16T07:54:12;62.30;;;44.25;;
32501;SDS011;18952;52.516;13.460;2023-04-16T07:56:40;66.70;;;46.75;;
32501;SDS011;18952;52.516;13.460;2023-04-16T07:59:07;61.72;;;44.80;;
32501;SDS011;18952;52.516;13.460;2023-04-16T08:01:57;65.32;;;45.25;;
32501;SDS011;18952;52.516;13.460;2023-04-16T08:04:24;60.80;;;43.35;;
32501;SDS011;18952;52.516;13.460;2023-04-16T08:06:52;71.30;;;45.75;;
32501;SDS011;18952;52.516;13.460;2023-04-16T08:09:19;65.05;;;44.53;;
32501;SDS011;18952;52.516;13.460;2023-04-16T08:11:47;58.35;;;42.30;;
32501;SDS011;18952;52.516;13.460;2023-04-16T08:14:15;59.58;;;43.75;;
32501;SDS011;18952;52.516;13.460;2023-04-16T08:16:42;70.88;;;45.83;;
32501;SDS011;18952;52.516;13.460;2023-04-16T08:19:08;62.38;;;44.40;;
32501;SDS011;18952;52.516;13.460;2023-04-16T08:21:36;64.75;;;42.70;;
32501;SDS011;18952;52.516;13.460;2023-04-16T08:24:02;66.88;;;45.75;;
32501;SDS011;18952;52.516;13.460;2023-04-16T08:26:29;68.53;;;46.83;;
32501;SDS011;18952;52.516;13.460;2023-04-16T08:28:56;72.45;;;49.45;;
32501;SDS011;18952;52.516;13.460;2023-04-16T08:31:23;64.30;;;45.80;;
32501;SDS011;18952;52.516;13.460;2023-04-16T08:33:49;58.83;;;43.33;;
32501;SDS011;18952;52.516;13.460;2023-04-16T08:36:17;69.70;;;46.42;;
32501;SDS011;18952;52.516;13.460;2023-04-16T08:38:44;65.90;;;45.92;;
32501;SDS011;18952;52.516;13.460;2023-04-16T08:41:12;59.95;;;44.50;;
32501;SDS011;18952;52.516;13.460;2023-04-16T08:43:41;60.58;;;43.53;;
32501;SDS011;18952;52.516;13.460;2023-04-16T08:46:11;60.90;;;43.45;;
32501;SDS011;18952;52.516;13.460;2023-04-16T08:48:42;60.08;;;42.70;;
32501;SDS011;18952;52.516;13.460;2023-04-16T08:51:19;57.50;;;42.13;;
32501;SDS011;18952;52.516;13.460;2023-04-16T08:53:52;61.97;;;45.22;;
32501;SDS011;18952;52.516;13.460;2023-04-16T08:56:25;59.80;;;44.10;;
32501;SDS011;18952;52.516;13.460;2023-04-16T08:58:53;64.60;;;46.22;;
32501;SDS011;18952;52.516;13.460;2023-04-16T09:01:20;64.18;;;46.97;;
32501;SDS011;18952;52.516;13.460;2023-04-16T09:03:50;60.92;;;44.70;;
32501;SDS011;18952;52.516;13.460;2023-04-16T09:06:22;61.83;;;45.33;;
32501;SDS011;18952;52.516;13.460;2023-04-16T09:08:59;68.10;;;46.80;;
32501;SDS011;18952;52.516;13.460;2023-04-16T09:11:26;55.70;;;43.53;;
32501;SDS011;18952;52.516;13.460;2023-04-16T09:13:53;55.60;;;41.95;;
32501;SDS011;18952;52.516;13.460;2023-04-16T09:16:20;55.00;;;41.17;;
32501;SDS011;18952;52.516;13.460;2023-04-16T09:18:47;52.10;;;41.00;;
32501;SDS011;18952;52.516;13.460;2023-04-16T09:21:13;54.13;;;41.40;;
32501;SDS011;18952;52.516;13.460;2023-04-16T09:23:40;49.78;;;39.58;;
32501;SDS011;18952;52.516;13.460;2023-04-16T09:26:07;42.92;;;36.13;;
32501;SDS011;18952;52.516;13.460;2023-04-16T09:28:52;43.15;;;36.05;;
32501;SDS011;18952;52.516;13.460;2023-04-16T09:31:18;42.92;;;35.65;;
32501;SDS011;18952;52.516;13.460;2023-04-16T09:36:42;43.58;;;34.42;;
32501;SDS011;18952;52.516;13.460;2023-04-16T09:39:09;41.13;;;33.38;;
32501;SDS011;18952;52.516;13.460;2023-04-16T09:41:44;41.05;;;35.97;;
32501;SDS011;18952;52.516;13.460;2023-04-16T09:44:11;45.95;;;36.92;;
32501;SDS011;18952;52.516;13.460;2023-04-16T09:46:41;40.85;;;36.40;;
32501;SDS011;18952;52.516;13.460;2023-04-16T09:49:14;44.00;;;36.30;;
32501;SDS011;18952;52.516;13.460;2023-04-16T09:51:47;44.50;;;37.40;;
32501;SDS011;18952;52.516;13.460;2023-04-16T09:54:14;39.85;;;35.28;;
32501;SDS011;18952;52.516;13.460;2023-04-16T09:56:41;47.72;;;36.47;;
32501;SDS011;18952;52.516;13.460;2023-04-16T09:59:16;49.63;;;40.40;;
32501;SDS011;18952;52.516;13.460;2023-04-16T10:01:46;42.53;;;36.97;;
32501;SDS011;18952;52.516;13.460;2023-04-16T10:04:14;43.17;;;36.88;;
32501;SDS011;18952;52.516;13.460;2023-04-16T10:06:42;40.25;;;35.92;;
32501;SDS011;18952;52.516;13.460;2023-04-16T10:09:09;67.15;;;59.20;;
32501;SDS011;18952;52.516;13.460;2023-04-16T10:11:37;47.65;;;39.03;;
32501;SDS011;18952;52.516;13.460;2023-04-16T10:14:05;42.10;;;36.53;;
32501;SDS011;18952;52.516;13.460;2023-04-16T10:16:33;42.85;;;37.15;;
32501;SDS011;18952;52.516;13.460;2023-04-16T10:19:00;47.15;;;37.55;;
32501;SDS011;18952;52.516;13.460;2023-04-16T10:21:29;48.22;;;39.05;;
32501;SDS011;18952;52.516;13.460;2023-04-16T10:24:01;43.97;;;37.83;;
32501;SDS011;18952;52.516;13.460;2023-04-16T10:26:31;44.72;;;38.65;;
32501;SDS011;18952;52.516;13.460;2023-04-16T10:29:09;42.85;;;38.17;;
32501;SDS011;18952;52.516;13.460;2023-04-16T10:31:41;50.83;;;41.15;;
32501;SDS011;18952;52.516;13.460;2023-04-16T10:34:08;51.58;;;41.90;;
32501;SDS011;18952;52.516;13.460;2023-04-16T10:36:38;47.35;;;41.00;;
32501;SDS011;18952;52.516;13.460;2023-04-16T10:39:10;55.10;;;44.53;;
32501;SDS011;18952;52.516;13.460;2023-04-16T10:41:43;49.63;;;42.35;;
32501;SDS011;18952;52.516;13.460;2023-04-16T10:44:11;48.45;;;42.38;;
32501;SDS011;18952;52.516;13.460;2023-04-16T10:46:41;48.80;;;41.33;;
32501;SDS011;18952;52.516;13.460;2023-04-16T10:49:13;45.47;;;39.70;;
32501;SDS011;18952;52.516;13.460;2023-04-16T10:52:00;45.75;;;39.42;;
32501;SDS011;18952;52.516;13.460;2023-04-16T10:54:34;43.17;;;36.50;;
32501;SDS011;18952;52.516;13.460;2023-04-16T10:57:05;40.90;;;36.53;;
32501;SDS011;18952;52.516;13.460;2023-04-16T10:59:34;42.45;;;37.83;;
32501;SDS011;18952;52.516;13.460;2023-04-16T11:02:05;40.33;;;35.92;;
32501;SDS011;18952;52.516;13.460;2023-04-16T11:04:43;43.08;;;38.30;;
32501;SDS011;18952;52.516;13.460;2023-04-16T11:09:53;41.28;;;36.35;;
32501;SDS011;18952;52.516;13.460;2023-04-16T11:12:39;37.40;;;33.40;;
32501;SDS011;18952;52.516;13.460;2023-04-16T11:17:48;37.15;;;33.10;;
32501;SDS011;18952;52.516;13.460;2023-04-16T11:20:25;32.95;;;29.55;;
32501;SDS011;18952;52.516;13.460;2023-04-16T11:22:55;38.90;;;31.50;;
32501;SDS011;18952;52.516;13.460;2023-04-16T11:25:30;33.75;;;30.20;;
32501;SDS011;18952;52.516;13.460;2023-04-16T11:27:57;32.47;;;29.35;;
32501;SDS011;18952;52.516;13.460;2023-04-16T11:30:32;35.85;;;31.83;;
32501;SDS011;18952;52.516;13.460;2023-04-16T11:35:31;35.20;;;31.60;;
32501;SDS011;18952;52.516;13.460;2023-04-16T11:38:02;32.88;;;29.58;;
32501;SDS011;18952;52.516;13.460;2023-04-16T11:40:29;33.72;;;30.33;;
32501;SDS011;18952;52.516;13.460;2023-04-16T11:43:03;35.10;;;31.67;;
32501;SDS011;18952;52.516;13.460;2023-04-16T11:45:40;31.85;;;28.73;;
32501;SDS011;18952;52.516;13.460;2023-04-16T11:48:21;31.65;;;28.55;;
32501;SDS011;18952;52.516;13.460;2023-04-16T11:50:54;28.90;;;26.10;;
32501;SDS011;18952;52.516;13.460;2023-04-16T11:53:22;29.90;;;26.88;;
32501;SDS011;18952;52.516;13.460;2023-04-16T11:55:49;29.17;;;26.40;;
32501;SDS011;18952;52.516;13.460;2023-04-16T11:58:17;29.63;;;26.73;;
32501;SDS011;18952;52.516;13.460;2023-04-16T12:00:44;28.42;;;25.73;;
32501;SDS011;18952;52.516;13.460;2023-04-16T12:03:12;30.33;;;27.33;;
32501;SDS011;18952;52.516;13.460;2023-04-16T12:05:44;30.48;;;27.52;;
32501;SDS011;18952;52.516;13.460;2023-04-16T12:08:11;32.63;;;29.52;;
32501;SDS011;18952;52.516;13.460;2023-04-16T12:10:54;35.60;;;32.00;;
32501;SDS011;18952;52.516;13.460;2023-04-16T12:13:21;36.50;;;32.92;;
32501;SDS011;18952;52.516;13.460;2023-04-16T12:15:50;32.40;;;29.30;;
32501;SDS011;18952;52.516;13.460;2023-04-16T12:18:21;33.55;;;30.27;;
32501;SDS011;18952;52.516;13.460;2023-04-16T12:20:49;31.23;;;28.02;;
32501;SDS011;18952;52.516;13.460;2023-04-16T12:25:49;30.05;;;27.17;;
32501;SDS011;18952;52.516;13.460;2023-04-16T12:31:15;32.42;;;29.05;;
32501;SDS011;18952;52.516;13.460;2023-04-16T12:33:43;31.33;;;28.23;;
32501;SDS011;18952;52.516;13.460;2023-04-16T12:36:30;28.95;;;26.13;;
32501;SDS011;18952;52.516;13.460;2023-04-16T12:38:56;28.38;;;25.58;;
32501;SDS011;18952;52.516;13.460;2023-04-16T12:41:24;27.60;;;24.88;;
32501;SDS011;18952;52.516;13.460;2023-04-16T12:43:51;28.63;;;25.55;;
32501;SDS011;18952;52.516;13.460;2023-04-16T12:46:29;28.58;;;24.83;;
32501;SDS011;18952;52.516;13.460;2023-04-16T12:48:57;28.25;;;25.40;;
32501;SDS011;18952;52.516;13.460;2023-04-16T12:51:27;27.50;;;23.33;;
32501;SDS011;18952;52.516;13.460;2023-04-16T12:53:58;31.17;;;27.90;;
32501;SDS011;18952;52.516;13.460;2023-04-16T12:56:33;25.05;;;22.55;;
32501;SDS011;18952;52.516;13.460;2023-04-16T12:59:00;25.50;;;22.85;;
32501;SDS011;18952;52.516;13.460;2023-04-16T13:01:27;23.95;;;21.48;;
32501;SDS011;18952;52.516;13.460;2023-04-16T13:03:54;21.58;;;19.23;;
32501;SDS011;18952;52.516;13.460;2023-04-16T13:06:21;24.55;;;21.48;;
32501;SDS011;18952;52.516;13.460;2023-04-16T13:08:48;33.17;;;22.55;;
32501;SDS011;18952;52.516;13.460;2023-04-16T13:11:14;24.05;;;20.23;;
32501;SDS011;18952;52.516;13.460;2023-04-16T13:13:41;21.38;;;18.90;;
32501;SDS011;18952;52.516;13.460;2023-04-16T13:16:08;23.30;;;19.85;;
32501;SDS011;18952;52.516;13.460;2023-04-16T13:18:34;21.38;;;19.17;;
32501;SDS011;18952;52.516;13.460;2023-04-16T13:21:01;27.73;;;20.25;;
32501;SDS011;18952;52.516;13.460;2023-04-16T13:23:28;21.63;;;19.42;;
32501;SDS011;18952;52.516;13.460;2023-04-16T13:25:55;24.05;;;21.33;;
32501;SDS011;18952;52.516;13.460;2023-04-16T13:28:22;19.77;;;17.65;;
32501;SDS011;18952;52.516;13.460;2023-04-16T13:30:50;21.83;;;19.15;;
32501;SDS011;18952;52.516;13.460;2023-04-16T13:33:19;21.35;;;19.15;;
32501;SDS011;18952;52.516;13.460;2023-04-16T13:35:47;18.73;;;16.38;;
32501;SDS011;18952;52.516;13.460;2023-04-16T13:38:16;20.70;;;17.60;;
32501;SDS011;18952;52.516;13.460;2023-04-16T13:40:43;21.50;;;16.42;;
32501;SDS011;18952;52.516;13.460;2023-04-16T13:43:10;23.08;;;18.38;;
32501;SDS011;18952;52.516;13.460;2023-04-16T13:45:42;19.67;;;17.30;;
32501;SDS011;18952;52.516;13.460;2023-04-16T13:48:09;22.45;;;17.60;;
32501;SDS011;18952;52.516;13.460;2023-04-16T13:50:35;20.15;;;18.00;;
32501;SDS011;18952;52.516;13.460;2023-04-16T13:53:02;20.63;;;17.23;;
32501;SDS011;18952;52.516;13.460;2023-04-16T13:55:29;19.13;;;15.70;;
32501;SDS011;18952;52.516;13.460;2023-04-16T13:57:56;21.83;;;16.73;;
32501;SDS011;18952;52.516;13.460;2023-04-16T14:00:24;18.52;;;16.00;;
32501;SDS011;18952;52.516;13.460;2023-04-16T14:02:51;20.58;;;18.33;;
32501;SDS011;18952;52.516;13.460;2023-04-16T14:05:20;20.45;;;17.63;;
32501;SDS011;18952;52.516;13.460;2023-04-16T14:07:47;20.58;;;17.35;;
32501;SDS011;18952;52.516;13.460;2023-04-16T14:10:14;21.90;;;17.88;;
32501;SDS011;18952;52.516;13.460;2023-04-16T14:12:42;20.48;;;16.85;;
32501;SDS011;18952;52.516;13.460;2023-04-16T14:15:11;19.00;;;17.05;;
32501;SDS011;18952;52.516;13.460;2023-04-16T14:17:38;19.73;;;17.73;;
32501;SDS011;18952;52.516;13.460;2023-04-16T14:20:06;19.05;;;17.25;;
32501;SDS011;18952;52.516;13.460;2023-04-16T14:22:37;19.13;;;16.33;;
32501;SDS011;18952;52.516;13.460;2023-04-16T14:25:12;18.02;;;15.60;;
32501;SDS011;18952;52.516;13.460;2023-04-16T14:27:41;17.83;;;15.95;;
32501;SDS011;18952;52.516;13.460;2023-04-16T14:30:08;16.63;;;15.02;;
32501;SDS011;18952;52.516;13.460;2023-04-16T14:32:38;17.00;;;15.30;;